Moore, South Carolina
Current Conditions -  °F | °C
As of 4:15 PM on Tuesday 21 Oct 2014 (Local Time) from KSPA Reporting Station
Broken Clouds Broken Clouds  
Wind Chill: 73°   Ceiling: 5500
Heat Index: 73°   Visibility: 10mi
Dew Point: 45°   Wind: 7mph
Humidity: 36%   Direction: 280°W
Pressure: 29.87"   Gusts: NA
Location:  34.83°N, 81.99°W
Report Text: KSPA 212015Z AUTO 28006KT 10SM BKN055 23/07 A2987 RMK AO2
Loading
Personal Weather Stations






























Interactive Weather Map
Tropical Storm Tracking
New forecast layout! Learn more

10-Day Weather Forecast

Advertisements
Track Severe Weather on mobile